sensor_id;sensor_type;location;lat;lon;timestamp;temperature;humidity
19256;DHT22;9762;52.490;13.410;2023-10-09T00:02:12;17.10;73.90
19256;DHT22;9762;52.490;13.410;2023-10-09T00:04:40;17.10;74.30
19256;DHT22;9762;52.490;13.410;2023-10-09T00:07:11;17.10;74.40
19256;DHT22;9762;52.490;13.410;2023-10-09T00:09:37;17.10;75.20
19256;DHT22;9762;52.490;13.410;2023-10-09T00:12:21;17.00;75.10
19256;DHT22;9762;52.490;13.410;2023-10-09T00:14:54;17.00;75.50
19256;DHT22;9762;52.490;13.410;2023-10-09T00:17:33;17.00;75.60
19256;DHT22;9762;52.490;13.410;2023-10-09T00:19:58;17.00;76.10
19256;DHT22;9762;52.490;13.410;2023-10-09T00:22:25;17.00;76.60
19256;DHT22;9762;52.490;13.410;2023-10-09T00:24:56;17.00;77.60
19256;DHT22;9762;52.490;13.410;2023-10-09T00:27:41;17.00;77.50
19256;DHT22;9762;52.490;13.410;2023-10-09T00:30:12;16.90;78.00
19256;DHT22;9762;52.490;13.410;2023-10-09T00:32:44;17.00;78.40
19256;DHT22;9762;52.490;13.410;2023-10-09T00:35:30;17.00;79.10
19256;DHT22;9762;52.490;13.410;2023-10-09T00:38:08;16.90;79.20
19256;DHT22;9762;52.490;13.410;2023-10-09T00:40:46;17.00;79.90
19256;DHT22;9762;52.490;13.410;2023-10-09T00:43:13;17.00;80.10
19256;DHT22;9762;52.490;13.410;2023-10-09T00:45:40;16.90;80.40
19256;DHT22;9762;52.490;13.410;2023-10-09T00:48:08;16.90;80.70
19256;DHT22;9762;52.490;13.410;2023-10-09T00:50:34;16.90;80.80
19256;DHT22;9762;52.490;13.410;2023-10-09T00:53:05;16.90;81.40
19256;DHT22;9762;52.490;13.410;2023-10-09T00:55:38;16.90;81.90
19256;DHT22;9762;52.490;13.410;2023-10-09T00:58:05;16.80;81.90
19256;DHT22;9762;52.490;13.410;2023-10-09T01:00:38;16.80;82.80
19256;DHT22;9762;52.490;13.410;2023-10-09T01:03:15;16.80;83.60
19256;DHT22;9762;52.490;13.410;2023-10-09T01:08:29;16.70;84.50
19256;DHT22;9762;52.490;13.410;2023-10-09T01:10:55;16.70;84.70
19256;DHT22;9762;52.490;13.410;2023-10-09T01:13:44;16.70;84.80
19256;DHT22;9762;52.490;13.410;2023-10-09T01:16:23;16.70;85.10
19256;DHT22;9762;52.490;13.410;2023-10-09T01:18:51;16.70;85.00
19256;DHT22;9762;52.490;13.410;2023-10-09T01:21:18;16.70;85.00
19256;DHT22;9762;52.490;13.410;2023-10-09T01:23:46;16.70;85.40
19256;DHT22;9762;52.490;13.410;2023-10-09T01:26:29;16.70;85.70
19256;DHT22;9762;52.490;13.410;2023-10-09T01:29:22;16.60;85.70
19256;DHT22;9762;52.490;13.410;2023-10-09T01:31:50;16.60;86.10
19256;DHT22;9762;52.490;13.410;2023-10-09T01:34:29;16.60;86.60
19256;DHT22;9762;52.490;13.410;2023-10-09T01:37:08;16.60;86.60
19256;DHT22;9762;52.490;13.410;2023-10-09T01:39:40;16.60;87.10
19256;DHT22;9762;52.490;13.410;2023-10-09T01:42:08;16.60;86.80
19256;DHT22;9762;52.490;13.410;2023-10-09T01:44:35;16.60;87.10
19256;DHT22;9762;52.490;13.410;2023-10-09T01:47:01;16.60;87.10
19256;DHT22;9762;52.490;13.410;2023-10-09T01:49:35;16.60;87.20
19256;DHT22;9762;52.490;13.410;2023-10-09T01:52:07;16.60;87.20
19256;DHT22;9762;52.490;13.410;2023-10-09T01:54:46;16.60;87.70
19256;DHT22;9762;52.490;13.410;2023-10-09T01:57:17;16.50;87.80
19256;DHT22;9762;52.490;13.410;2023-10-09T01:59:49;16.50;88.10
19256;DHT22;9762;52.490;13.410;2023-10-09T02:02:18;16.50;87.90
19256;DHT22;9762;52.490;13.410;2023-10-09T02:05:00;16.50;88.10
19256;DHT22;9762;52.490;13.410;2023-10-09T02:07:31;16.40;88.40
19256;DHT22;9762;52.490;13.410;2023-10-09T02:10:07;16.40;88.50
19256;DHT22;9762;52.490;13.410;2023-10-09T02:12:47;16.40;88.50
19256;DHT22;9762;52.490;13.410;2023-10-09T02:15:12;16.40;89.10
19256;DHT22;9762;52.490;13.410;2023-10-09T02:17:41;16.40;89.10
19256;DHT22;9762;52.490;13.410;2023-10-09T02:20:17;16.40;89.20
19256;DHT22;9762;52.490;13.410;2023-10-09T02:22:54;16.40;89.50
19256;DHT22;9762;52.490;13.410;2023-10-09T02:25:20;16.30;89.80
19256;DHT22;9762;52.490;13.410;2023-10-09T02:27:47;16.30;89.90
19256;DHT22;9762;52.490;13.410;2023-10-09T02:30:19;16.30;90.50
19256;DHT22;9762;52.490;13.410;2023-10-09T02:32:53;16.30;90.30
19256;DHT22;9762;52.490;13.410;2023-10-09T02:35:24;16.30;90.30
19256;DHT22;9762;52.490;13.410;2023-10-09T02:38:03;16.30;90.40
19256;DHT22;9762;52.490;13.410;2023-10-09T02:40:33;16.30;90.50
19256;DHT22;9762;52.490;13.410;2023-10-09T02:43:08;16.30;90.60
19256;DHT22;9762;52.490;13.410;2023-10-09T02:45:43;16.30;91.00
19256;DHT22;9762;52.490;13.410;2023-10-09T02:48:16;16.20;91.00
19256;DHT22;9762;52.490;13.410;2023-10-09T02:50:44;16.30;91.10
19256;DHT22;9762;52.490;13.410;2023-10-09T02:53:10;16.20;91.20
19256;DHT22;9762;52.490;13.410;2023-10-09T02:55:44;16.30;91.30
19256;DHT22;9762;52.490;13.410;2023-10-09T02:58:25;16.20;91.50
19256;DHT22;9762;52.490;13.410;2023-10-09T03:00:51;16.20;91.60
19256;DHT22;9762;52.490;13.410;2023-10-09T03:03:17;16.20;91.60
19256;DHT22;9762;52.490;13.410;2023-10-09T03:05:42;16.20;91.70
19256;DHT22;9762;52.490;13.410;2023-10-09T03:08:09;16.20;92.10
19256;DHT22;9762;52.490;13.410;2023-10-09T03:10:38;16.20;91.70
19256;DHT22;9762;52.490;13.410;2023-10-09T03:13:04;16.10;91.70
19256;DHT22;9762;52.490;13.410;2023-10-09T03:15:31;16.10;91.90
19256;DHT22;9762;52.490;13.410;2023-10-09T03:18:04;16.10;91.90
19256;DHT22;9762;52.490;13.410;2023-10-09T03:20:30;16.10;91.90
19256;DHT22;9762;52.490;13.410;2023-10-09T03:22:56;16.10;92.00
19256;DHT22;9762;52.490;13.410;2023-10-09T03:25:23;16.10;92.00
19256;DHT22;9762;52.490;13.410;2023-10-09T03:27:52;16.10;92.10
19256;DHT22;9762;52.490;13.410;2023-10-09T03:30:21;16.10;92.20
19256;DHT22;9762;52.490;13.410;2023-10-09T03:32:51;16.10;92.40
19256;DHT22;9762;52.490;13.410;2023-10-09T03:35:20;16.10;92.40
19256;DHT22;9762;52.490;13.410;2023-10-09T03:37:51;16.10;92.50
19256;DHT22;9762;52.490;13.410;2023-10-09T03:40:17;16.20;92.50
19256;DHT22;9762;52.490;13.410;2023-10-09T03:42:44;16.10;92.60
19256;DHT22;9762;52.490;13.410;2023-10-09T03:45:09;16.10;92.50
19256;DHT22;9762;52.490;13.410;2023-10-09T03:47:44;16.20;92.50
19256;DHT22;9762;52.490;13.410;2023-10-09T03:50:09;16.20;92.60
19256;DHT22;9762;52.490;13.410;2023-10-09T03:52:52;16.20;92.60
19256;DHT22;9762;52.490;13.410;2023-10-09T03:55:18;16.20;92.60
19256;DHT22;9762;52.490;13.410;2023-10-09T03:57:44;16.20;92.60
19256;DHT22;9762;52.490;13.410;2023-10-09T04:00:11;16.10;92.60
19256;DHT22;9762;52.490;13.410;2023-10-09T04:02:41;16.10;92.60
19256;DHT22;9762;52.490;13.410;2023-10-09T04:05:07;16.10;92.60
19256;DHT22;9762;52.490;13.410;2023-10-09T04:07:33;16.10;92.70
19256;DHT22;9762;52.490;13.410;2023-10-09T04:09:59;16.10;92.50
19256;DHT22;9762;52.490;13.410;2023-10-09T04:12:47;16.10;92.40
19256;DHT22;9762;52.490;13.410;2023-10-09T04:15:18;16.10;92.40
19256;DHT22;9762;52.490;13.410;2023-10-09T04:17:48;16.10;92.40
19256;DHT22;9762;52.490;13.410;2023-10-09T04:20:17;16.10;92.80
19256;DHT22;9762;52.490;13.410;2023-10-09T04:22:45;16.10;92.80
19256;DHT22;9762;52.490;13.410;2023-10-09T04:25:25;16.10;92.90
19256;DHT22;9762;52.490;13.410;2023-10-09T04:27:54;16.10;93.10
19256;DHT22;9762;52.490;13.410;2023-10-09T04:30:28;16.10;93.30
19256;DHT22;9762;52.490;13.410;2023-10-09T04:32:54;16.10;93.40
19256;DHT22;9762;52.490;13.410;2023-10-09T04:35:29;16.10;93.60
19256;DHT22;9762;52.490;13.410;2023-10-09T04:37:54;16.10;93.50
19256;DHT22;9762;52.490;13.410;2023-10-09T04:40:31;16.20;93.50
19256;DHT22;9762;52.490;13.410;2023-10-09T04:43:23;16.20;93.60
19256;DHT22;9762;52.490;13.410;2023-10-09T04:45:49;16.20;93.30
19256;DHT22;9762;52.490;13.410;2023-10-09T04:48:33;16.20;93.20
19256;DHT22;9762;52.490;13.410;2023-10-09T04:51:03;16.10;93.50
19256;DHT22;9762;52.490;13.410;2023-10-09T04:53:48;16.20;93.60
19256;DHT22;9762;52.490;13.410;2023-10-09T04:56:36;16.20;93.80
19256;DHT22;9762;52.490;13.410;2023-10-09T04:59:17;16.20;93.40
19256;DHT22;9762;52.490;13.410;2023-10-09T05:01:44;16.20;93.20
19256;DHT22;9762;52.490;13.410;2023-10-09T05:04:12;16.20;93.20
19256;DHT22;9762;52.490;13.410;2023-10-09T05:06:56;16.20;93.20
19256;DHT22;9762;52.490;13.410;2023-10-09T05:09:22;16.20;93.00
19256;DHT22;9762;52.490;13.410;2023-10-09T05:11:49;16.20;93.00
19256;DHT22;9762;52.490;13.410;2023-10-09T05:14:18;16.20;92.90
19256;DHT22;9762;52.490;13.410;2023-10-09T05:16:52;16.20;92.90
19256;DHT22;9762;52.490;13.410;2023-10-09T05:19:26;16.20;92.80
19256;DHT22;9762;52.490;13.410;2023-10-09T05:22:10;16.20;93.20
19256;DHT22;9762;52.490;13.410;2023-10-09T05:24:56;16.20;92.90
19256;DHT22;9762;52.490;13.410;2023-10-09T05:27:22;16.10;92.90
19256;DHT22;9762;52.490;13.410;2023-10-09T05:30:07;16.10;92.90
19256;DHT22;9762;52.490;13.410;2023-10-09T05:32:51;16.10;93.00
19256;DHT22;9762;52.490;13.410;2023-10-09T05:35:21;16.10;92.80
19256;DHT22;9762;52.490;13.410;2023-10-09T05:37:55;16.20;92.80
19256;DHT22;9762;52.490;13.410;2023-10-09T05:40:27;16.20;93.10
19256;DHT22;9762;52.490;13.410;2023-10-09T05:42:56;16.20;93.00
19256;DHT22;9762;52.490;13.410;2023-10-09T05:45:27;16.20;92.80
19256;DHT22;9762;52.490;13.410;2023-10-09T05:47:55;16.20;92.80
19256;DHT22;9762;52.490;13.410;2023-10-09T05:50:40;16.20;92.90
19256;DHT22;9762;52.490;13.410;2023-10-09T05:53:24;16.20;92.90
19256;DHT22;9762;52.490;13.410;2023-10-09T05:56:08;16.20;93.10
19256;DHT22;9762;52.490;13.410;2023-10-09T05:58:52;16.20;93.20
19256;DHT22;9762;52.490;13.410;2023-10-09T06:01:36;16.20;93.20
19256;DHT22;9762;52.490;13.410;2023-10-09T06:04:20;16.20;93.10
19256;DHT22;9762;52.490;13.410;2023-10-09T06:06:46;16.20;93.10
19256;DHT22;9762;52.490;13.410;2023-10-09T06:09:21;16.20;93.10
19256;DHT22;9762;52.490;13.410;2023-10-09T06:11:48;16.20;93.00
19256;DHT22;9762;52.490;13.410;2023-10-09T06:14:15;16.20;93.10
19256;DHT22;9762;52.490;13.410;2023-10-09T06:16:52;16.20;93.10
19256;DHT22;9762;52.490;13.410;2023-10-09T06:19:37;16.30;93.10
19256;DHT22;9762;52.490;13.410;2023-10-09T06:22:09;16.30;93.00
19256;DHT22;9762;52.490;13.410;2023-10-09T06:24:55;16.40;93.00
19256;DHT22;9762;52.490;13.410;2023-10-09T06:27:23;16.40;92.90
19256;DHT22;9762;52.490;13.410;2023-10-09T06:30:00;16.50;92.80
19256;DHT22;9762;52.490;13.410;2023-10-09T06:32:44;16.50;92.70
19256;DHT22;9762;52.490;13.410;2023-10-09T06:35:21;16.50;92.80
19256;DHT22;9762;52.490;13.410;2023-10-09T06:37:49;16.50;92.70
19256;DHT22;9762;52.490;13.410;2023-10-09T06:40:27;16.50;92.60
19256;DHT22;9762;52.490;13.410;2023-10-09T06:43:06;16.50;92.60
19256;DHT22;9762;52.490;13.410;2023-10-09T06:45:43;16.60;92.50
19256;DHT22;9762;52.490;13.410;2023-10-09T06:48:20;16.60;92.50
19256;DHT22;9762;52.490;13.410;2023-10-09T06:51:09;16.60;92.50
19256;DHT22;9762;52.490;13.410;2023-10-09T06:56:26;16.70;92.30
19256;DHT22;9762;52.490;13.410;2023-10-09T06:58:58;16.70;92.30
19256;DHT22;9762;52.490;13.410;2023-10-09T07:01:24;16.80;92.20
19256;DHT22;9762;52.490;13.410;2023-10-09T07:03:59;16.80;92.20
19256;DHT22;9762;52.490;13.410;2023-10-09T07:06:47;16.80;92.30
19256;DHT22;9762;52.490;13.410;2023-10-09T07:09:14;16.90;92.20
19256;DHT22;9762;52.490;13.410;2023-10-09T07:11:44;16.90;92.20
19256;DHT22;9762;52.490;13.410;2023-10-09T07:14:14;16.90;92.00
19256;DHT22;9762;52.490;13.410;2023-10-09T07:17:03;16.90;92.00
19256;DHT22;9762;52.490;13.410;2023-10-09T07:19:48;16.90;92.10
19256;DHT22;9762;52.490;13.410;2023-10-09T07:22:14;17.00;92.10
19256;DHT22;9762;52.490;13.410;2023-10-09T07:24:55;17.00;92.00
19256;DHT22;9762;52.490;13.410;2023-10-09T07:27:39;17.00;92.00
19256;DHT22;9762;52.490;13.410;2023-10-09T07:30:15;17.10;92.00
19256;DHT22;9762;52.490;13.410;2023-10-09T07:33:01;17.10;92.00
19256;DHT22;9762;52.490;13.410;2023-10-09T07:35:48;17.10;91.90
19256;DHT22;9762;52.490;13.410;2023-10-09T07:38:26;17.10;91.90
19256;DHT22;9762;52.490;13.410;2023-10-09T07:40:59;17.20;92.00
19256;DHT22;9762;52.490;13.410;2023-10-09T07:43:38;17.20;91.90
19256;DHT22;9762;52.490;13.410;2023-10-09T07:46:14;17.20;91.90
19256;DHT22;9762;52.490;13.410;2023-10-09T07:49:09;17.30;91.90
19256;DHT22;9762;52.490;13.410;2023-10-09T07:51:38;17.30;91.80
19256;DHT22;9762;52.490;13.410;2023-10-09T07:54:09;17.40;91.70
19256;DHT22;9762;52.490;13.410;2023-10-09T07:56:39;17.40;91.60
19256;DHT22;9762;52.490;13.410;2023-10-09T07:59:09;17.40;91.60
19256;DHT22;9762;52.490;13.410;2023-10-09T08:01:40;17.40;91.40
19256;DHT22;9762;52.490;13.410;2023-10-09T08:04:20;17.40;91.40
19256;DHT22;9762;52.490;13.410;2023-10-09T08:07:06;17.40;91.30
19256;DHT22;9762;52.490;13.410;2023-10-09T08:09:34;17.40;91.10
19256;DHT22;9762;52.490;13.410;2023-10-09T08:12:15;17.40;91.20
19256;DHT22;9762;52.490;13.410;2023-10-09T08:15:02;17.40;91.20
19256;DHT22;9762;52.490;13.410;2023-10-09T08:17:57;17.40;91.20
19256;DHT22;9762;52.490;13.410;2023-10-09T08:20:35;17.40;91.10
19256;DHT22;9762;52.490;13.410;2023-10-09T08:23:36;17.40;91.10
19256;DHT22;9762;52.490;13.410;2023-10-09T08:26:17;17.40;91.00
19256;DHT22;9762;52.490;13.410;2023-10-09T08:29:03;17.40;91.10
19256;DHT22;9762;52.490;13.410;2023-10-09T08:31:43;17.40;91.30
19256;DHT22;9762;52.490;13.410;2023-10-09T08:34:14;17.40;91.30
19256;DHT22;9762;52.490;13.410;2023-10-09T08:36:52;17.40;91.40
19256;DHT22;9762;52.490;13.410;2023-10-09T08:39:20;17.40;91.40
19256;DHT22;9762;52.490;13.410;2023-10-09T08:41:55;17.30;91.50
19256;DHT22;9762;52.490;13.410;2023-10-09T08:44:25;17.40;91.50
19256;DHT22;9762;52.490;13.410;2023-10-09T08:46:54;17.40;91.50
19256;DHT22;9762;52.490;13.410;2023-10-09T08:49:20;17.40;91.40
19256;DHT22;9762;52.490;13.410;2023-10-09T08:51:47;17.50;91.60
19256;DHT22;9762;52.490;13.410;2023-10-09T08:54:13;17.50;91.50
19256;DHT22;9762;52.490;13.410;2023-10-09T08:56:41;17.50;91.30
19256;DHT22;9762;52.490;13.410;2023-10-09T08:59:15;17.50;91.30
19256;DHT22;9762;52.490;13.410;2023-10-09T09:01:48;17.50;91.30
19256;DHT22;9762;52.490;13.410;2023-10-09T09:04:40;17.60;91.20
19256;DHT22;9762;52.490;13.410;2023-10-09T09:07:26;17.60;91.10
19256;DHT22;9762;52.490;13.410;2023-10-09T09:09:58;17.60;91.00
19256;DHT22;9762;52.490;13.410;2023-10-09T09:12:30;17.60;90.90
19256;DHT22;9762;52.490;13.410;2023-10-09T09:15:03;17.60;90.90
19256;DHT22;9762;52.490;13.410;2023-10-09T09:17:32;17.60;90.90
19256;DHT22;9762;52.490;13.410;2023-10-09T09:19:58;17.60;90.90
19256;DHT22;9762;52.490;13.410;2023-10-09T09:22:24;17.60;90.80
19256;DHT22;9762;52.490;13.410;2023-10-09T09:24:58;17.60;90.70
19256;DHT22;9762;52.490;13.410;2023-10-09T09:27:44;17.60;90.80
19256;DHT22;9762;52.490;13.410;2023-10-09T09:30:25;17.60;90.90
19256;DHT22;9762;52.490;13.410;2023-10-09T09:32:57;17.60;90.90
19256;DHT22;9762;52.490;13.410;2023-10-09T09:35:59;17.60;90.80
19256;DHT22;9762;52.490;13.410;2023-10-09T09:38:29;17.60;90.90
19256;DHT22;9762;52.490;13.410;2023-10-09T09:40:56;17.70;91.00
19256;DHT22;9762;52.490;13.410;2023-10-09T09:43:22;17.70;91.00
19256;DHT22;9762;52.490;13.410;2023-10-09T09:45:49;17.70;91.00
19256;DHT22;9762;52.490;13.410;2023-10-09T09:48:18;17.80;91.00
19256;DHT22;9762;52.490;13.410;2023-10-09T09:50:44;17.80;90.90
19256;DHT22;9762;52.490;13.410;2023-10-09T09:53:15;17.80;90.90
19256;DHT22;9762;52.490;13.410;2023-10-09T09:55:51;17.80;90.80
19256;DHT22;9762;52.490;13.410;2023-10-09T09:58:24;17.90;90.70
19256;DHT22;9762;52.490;13.410;2023-10-09T10:00:56;17.90;90.60
19256;DHT22;9762;52.490;13.410;2023-10-09T10:03:32;17.90;90.60
19256;DHT22;9762;52.490;13.410;2023-10-09T10:06:00;17.90;90.60
19256;DHT22;9762;52.490;13.410;2023-10-09T10:08:31;17.90;90.50
19256;DHT22;9762;52.490;13.410;2023-10-09T10:10:59;17.90;90.40
19256;DHT22;9762;52.490;13.410;2023-10-09T10:16:12;17.80;90.40
19256;DHT22;9762;52.490;13.410;2023-10-09T10:19:00;17.80;90.40
19256;DHT22;9762;52.490;13.410;2023-10-09T10:21:33;17.80;90.50
19256;DHT22;9762;52.490;13.410;2023-10-09T10:35:20;17.90;90.20
19256;DHT22;9762;52.490;13.410;2023-10-09T10:37:58;17.90;90.30
19256;DHT22;9762;52.490;13.410;2023-10-09T10:40:33;17.90;90.40
19256;DHT22;9762;52.490;13.410;2023-10-09T10:43:16;17.90;90.50
19256;DHT22;9762;52.490;13.410;2023-10-09T10:46:06;17.90;90.40
19256;DHT22;9762;52.490;13.410;2023-10-09T10:49:02;17.90;90.50
19256;DHT22;9762;52.490;13.410;2023-10-09T10:51:40;17.90;90.60
19256;DHT22;9762;52.490;13.410;2023-10-09T10:54:09;17.90;90.60
19256;DHT22;9762;52.490;13.410;2023-10-09T10:56:53;17.90;90.40
19256;DHT22;9762;52.490;13.410;2023-10-09T10:59:22;17.90;90.10
19256;DHT22;9762;52.490;13.410;2023-10-09T11:01:49;17.90;90.10
19256;DHT22;9762;52.490;13.410;2023-10-09T11:04:27;18.00;90.10
19256;DHT22;9762;52.490;13.410;2023-10-09T11:07:05;18.00;90.10
19256;DHT22;9762;52.490;13.410;2023-10-09T11:09:53;18.00;90.10
19256;DHT22;9762;52.490;13.410;2023-10-09T11:12:41;18.10;90.00
19256;DHT22;9762;52.490;13.410;2023-10-09T11:15:12;18.10;89.70
19256;DHT22;9762;52.490;13.410;2023-10-09T11:18:06;18.10;89.60
19256;DHT22;9762;52.490;13.410;2023-10-09T11:20:42;18.10;89.10
19256;DHT22;9762;52.490;13.410;2023-10-09T11:23:22;18.10;89.50
19256;DHT22;9762;52.490;13.410;2023-10-09T11:26:02;18.10;89.40
19256;DHT22;9762;52.490;13.410;2023-10-09T11:29:11;18.10;89.60
19256;DHT22;9762;52.490;13.410;2023-10-09T11:32:02;18.10;89.30
19256;DHT22;9762;52.490;13.410;2023-10-09T11:34:28;18.10;89.50
19256;DHT22;9762;52.490;13.410;2023-10-09T11:37:12;18.20;89.00
19256;DHT22;9762;52.490;13.410;2023-10-09T11:39:41;18.20;88.90
19256;DHT22;9762;52.490;13.410;2023-10-09T11:42:19;18.20;89.20
19256;DHT22;9762;52.490;13.410;2023-10-09T11:47:50;18.20;89.90
19256;DHT22;9762;52.490;13.410;2023-10-09T11:53:14;18.30;89.40
19256;DHT22;9762;52.490;13.410;2023-10-09T11:55:50;18.30;89.60
19256;DHT22;9762;52.490;13.410;2023-10-09T11:58:18;18.40;89.30
19256;DHT22;9762;52.490;13.410;2023-10-09T12:00:51;18.40;89.30
19256;DHT22;9762;52.490;13.410;2023-10-09T12:03:27;18.40;89.00
19256;DHT22;9762;52.490;13.410;2023-10-09T12:05:56;18.40;89.00
19256;DHT22;9762;52.490;13.410;2023-10-09T12:08:23;18.40;89.20
19256;DHT22;9762;52.490;13.410;2023-10-09T12:10:52;18.50;89.10
19256;DHT22;9762;52.490;13.410;2023-10-09T12:13:21;18.50;88.50
19256;DHT22;9762;52.490;13.410;2023-10-09T12:15:48;18.60;88.50
19256;DHT22;9762;52.490;13.410;2023-10-09T12:18:13;18.60;88.90
19256;DHT22;9762;52.490;13.410;2023-10-09T12:20:44;18.70;89.10
19256;DHT22;9762;52.490;13.410;2023-10-09T12:23:22;18.80;87.40
19256;DHT22;9762;52.490;13.410;2023-10-09T12:25:49;18.80;86.80
19256;DHT22;9762;52.490;13.410;2023-10-09T12:28:16;18.90;86.70
19256;DHT22;9762;52.490;13.410;2023-10-09T12:30:46;18.90;86.00
19256;DHT22;9762;52.490;13.410;2023-10-09T12:33:20;18.80;86.40
19256;DHT22;9762;52.490;13.410;2023-10-09T12:35:51;18.80;86.40
19256;DHT22;9762;52.490;13.410;2023-10-09T12:38:17;18.80;86.20
19256;DHT22;9762;52.490;13.410;2023-10-09T12:40:47;18.60;86.90
19256;DHT22;9762;52.490;13.410;2023-10-09T12:43:18;18.50;87.50
19256;DHT22;9762;52.490;13.410;2023-10-09T12:45:47;18.50;87.60
19256;DHT22;9762;52.490;13.410;2023-10-09T12:48:13;18.50;87.80
19256;DHT22;9762;52.490;13.410;2023-10-09T12:50:40;18.50;88.00
19256;DHT22;9762;52.490;13.410;2023-10-09T12:53:10;18.40;88.20
19256;DHT22;9762;52.490;13.410;2023-10-09T12:55:39;18.30;88.30
19256;DHT22;9762;52.490;13.410;2023-10-09T12:58:07;18.30;89.00
19256;DHT22;9762;52.490;13.410;2023-10-09T13:00:34;18.30;88.90
19256;DHT22;9762;52.490;13.410;2023-10-09T13:03:04;18.30;88.80
19256;DHT22;9762;52.490;13.410;2023-10-09T13:05:39;18.30;88.80
19256;DHT22;9762;52.490;13.410;2023-10-09T13:10:50;18.30;89.20
19256;DHT22;9762;52.490;13.410;2023-10-09T13:13:24;18.30;89.30
19256;DHT22;9762;52.490;13.410;2023-10-09T13:15:52;18.30;89.20
19256;DHT22;9762;52.490;13.410;2023-10-09T13:18:18;18.30;89.30
19256;DHT22;9762;52.490;13.410;2023-10-09T13:20:44;18.30;89.30
19256;DHT22;9762;52.490;13.410;2023-10-09T13:23:11;18.30;89.00
19256;DHT22;9762;52.490;13.410;2023-10-09T13:25:40;18.40;88.90
19256;DHT22;9762;52.490;13.410;2023-10-09T13:28:06;18.40;88.90
19256;DHT22;9762;52.490;13.410;2023-10-09T13:30:32;18.30;88.90
19256;DHT22;9762;52.490;13.410;2023-10-09T13:33:04;18.30;89.10
19256;DHT22;9762;52.490;13.410;2023-10-09T13:35:31;18.30;89.90
19256;DHT22;9762;52.490;13.410;2023-10-09T13:38:04;18.30;89.20
19256;DHT22;9762;52.490;13.410;2023-10-09T13:40:33;18.30;89.20
19256;DHT22;9762;52.490;13.410;2023-10-09T13:43:00;18.30;89.30
19256;DHT22;9762;52.490;13.410;2023-10-09T13:45:27;18.30;89.30
19256;DHT22;9762;52.490;13.410;2023-10-09T13:47:56;18.30;89.30
19256;DHT22;9762;52.490;13.410;2023-10-09T13:50:26;18.30;89.30
19256;DHT22;9762;52.490;13.410;2023-10-09T13:52:55;18.30;89.40
19256;DHT22;9762;52.490;13.410;2023-10-09T13:55:21;18.30;89.30
19256;DHT22;9762;52.490;13.410;2023-10-09T13:57:47;18.30;89.50
19256;DHT22;9762;52.490;13.410;2023-10-09T14:00:14;18.30;89.40
19256;DHT22;9762;52.490;13.410;2023-10-09T14:02:45;18.30;89.30
19256;DHT22;9762;52.490;13.410;2023-10-09T14:05:12;18.30;89.40
19256;DHT22;9762;52.490;13.410;2023-10-09T14:07:39;18.30;89.40
19256;DHT22;9762;52.490;13.410;2023-10-09T14:10:06;18.30;89.50
19256;DHT22;9762;52.490;13.410;2023-10-09T14:12:43;18.30;89.40
19256;DHT22;9762;52.490;13.410;2023-10-09T14:15:10;18.30;89.60
19256;DHT22;9762;52.490;13.410;2023-10-09T14:17:43;18.30;89.50
19256;DHT22;9762;52.490;13.410;2023-10-09T14:20:09;18.30;89.40
19256;DHT22;9762;52.490;13.410;2023-10-09T14:22:53;18.30;89.60
19256;DHT22;9762;52.490;13.410;2023-10-09T14:25:19;18.30;89.40
19256;DHT22;9762;52.490;13.410;2023-10-09T14:27:46;18.30;89.20
19256;DHT22;9762;52.490;13.410;2023-10-09T14:30:13;18.20;89.20
19256;DHT22;9762;52.490;13.410;2023-10-09T14:32:48;18.20;89.40
19256;DHT22;9762;52.490;13.410;2023-10-09T14:35:21;18.20;89.70
19256;DHT22;9762;52.490;13.410;2023-10-09T14:37:52;18.20;90.00
19256;DHT22;9762;52.490;13.410;2023-10-09T14:40:19;18.20;89.90
19256;DHT22;9762;52.490;13.410;2023-10-09T14:42:55;18.10;89.40
19256;DHT22;9762;52.490;13.410;2023-10-09T14:45:24;18.10;89.60
19256;DHT22;9762;52.490;13.410;2023-10-09T14:47:52;18.10;89.90
19256;DHT22;9762;52.490;13.410;2023-10-09T14:50:20;18.10;90.10
19256;DHT22;9762;52.490;13.410;2023-10-09T14:52:48;18.10;90.00
19256;DHT22;9762;52.490;13.410;2023-10-09T14:55:16;18.10;90.00
19256;DHT22;9762;52.490;13.410;2023-10-09T14:57:52;18.10;90.00
19256;DHT22;9762;52.490;13.410;2023-10-09T15:00:17;18.10;90.00
19256;DHT22;9762;52.490;13.410;2023-10-09T15:02:49;18.10;90.00
19256;DHT22;9762;52.490;13.410;2023-10-09T15:05:16;18.10;89.80
19256;DHT22;9762;52.490;13.410;2023-10-09T15:07:41;18.10;89.80
19256;DHT22;9762;52.490;13.410;2023-10-09T15:10:08;18.10;90.00
19256;DHT22;9762;52.490;13.410;2023-10-09T15:12:35;18.10;89.90
19256;DHT22;9762;52.490;13.410;2023-10-09T15:15:08;18.10;90.10
19256;DHT22;9762;52.490;13.410;2023-10-09T15:17:42;18.00;90.20
19256;DHT22;9762;52.490;13.410;2023-10-09T15:20:14;18.10;90.40
19256;DHT22;9762;52.490;13.410;2023-10-09T15:22:44;18.10;90.40
19256;DHT22;9762;52.490;13.410;2023-10-09T15:25:10;18.10;90.30
19256;DHT22;9762;52.490;13.410;2023-10-09T15:27:41;18.10;90.30
19256;DHT22;9762;52.490;13.410;2023-10-09T15:30:07;18.10;90.30
19256;DHT22;9762;52.490;13.410;2023-10-09T15:32:40;18.20;90.40
19256;DHT22;9762;52.490;13.410;2023-10-09T15:35:07;18.20;90.40
19256;DHT22;9762;52.490;13.410;2023-10-09T15:37:38;18.20;90.40
19256;DHT22;9762;52.490;13.410;2023-10-09T15:40:06;18.20;90.40
19256;DHT22;9762;52.490;13.410;2023-10-09T15:42:43;18.10;90.20
19256;DHT22;9762;52.490;13.410;2023-10-09T15:45:09;18.10;90.30
19256;DHT22;9762;52.490;13.410;2023-10-09T15:47:35;18.10;90.30
19256;DHT22;9762;52.490;13.410;2023-10-09T15:50:02;18.10;90.30
19256;DHT22;9762;52.490;13.410;2023-10-09T15:52:29;18.00;90.30
19256;DHT22;9762;52.490;13.410;2023-10-09T15:54:55;18.00;90.30
19256;DHT22;9762;52.490;13.410;2023-10-09T15:57:21;18.00;90.20
19256;DHT22;9762;52.490;13.410;2023-10-09T15:59:47;18.00;90.20
19256;DHT22;9762;52.490;13.410;2023-10-09T16:02:15;18.00;90.30
19256;DHT22;9762;52.490;13.410;2023-10-09T16:04:42;18.00;90.30
19256;DHT22;9762;52.490;13.410;2023-10-09T16:07:08;17.90;90.30
19256;DHT22;9762;52.490;13.410;2023-10-09T16:09:35;17.90;90.40
19256;DHT22;9762;52.490;13.410;2023-10-09T16:12:05;17.90;90.50
19256;DHT22;9762;52.490;13.410;2023-10-09T16:14:31;17.90;90.50
19256;DHT22;9762;52.490;13.410;2023-10-09T16:16:56;17.90;90.60
19256;DHT22;9762;52.490;13.410;2023-10-09T16:19:22;17.90;90.60
19256;DHT22;9762;52.490;13.410;2023-10-09T16:21:49;17.90;90.60
19256;DHT22;9762;52.490;13.410;2023-10-09T16:24:17;17.90;90.70
19256;DHT22;9762;52.490;13.410;2023-10-09T16:26:45;17.90;90.70
19256;DHT22;9762;52.490;13.410;2023-10-09T16:29:16;17.90;90.60
19256;DHT22;9762;52.490;13.410;2023-10-09T16:31:42;17.90;90.60
19256;DHT22;9762;52.490;13.410;2023-10-09T16:34:08;17.90;90.60